createdAt,value
2022-11-05T00:01:14.386Z,1.30
2022-11-05T00:03:59.856Z,2.08
2022-11-05T00:06:45.146Z,1.15
2022-11-05T00:09:29.992Z,1.17
2022-11-05T00:12:22.788Z,1.33
2022-11-05T00:15:08.186Z,2.70
2022-11-05T00:17:34.826Z,2.13
2022-11-05T00:20:01.784Z,1.20
2022-11-05T00:22:47.296Z,0.90
2022-11-05T00:25:14.000Z,1.13
2022-11-05T00:27:40.950Z,1.83
2022-11-05T00:30:09.152Z,1.13
2022-11-05T00:32:35.681Z,1.35
2022-11-05T00:35:02.252Z,2.08
2022-11-05T00:37:28.931Z,1.35
2022-11-05T00:39:55.516Z,1.20
2022-11-05T00:42:40.774Z,1.02
2022-11-05T00:45:07.721Z,1.75
2022-11-05T00:47:53.086Z,1.67
2022-11-05T00:50:21.862Z,1.13
2022-11-05T00:52:55.501Z,1.05
2022-11-05T00:55:35.163Z,1.42
2022-11-05T00:58:03.922Z,1.92
2022-11-05T01:00:32.906Z,1.48
2022-11-05T01:03:01.464Z,1.00
2022-11-05T01:05:29.790Z,1.10
2022-11-05T01:07:56.502Z,1.17
2022-11-05T01:10:23.686Z,0.98
2022-11-05T01:12:50.827Z,0.93
2022-11-05T01:15:18.821Z,1.80
2022-11-05T01:17:45.343Z,1.20
2022-11-05T01:20:12.580Z,2.25
2022-11-05T01:22:39.131Z,1.13
2022-11-05T01:25:07.410Z,1.10
2022-11-05T01:27:34.989Z,1.00
2022-11-05T01:30:01.643Z,1.05
2022-11-05T01:32:28.162Z,0.98
2022-11-05T01:34:54.711Z,1.65
2022-11-05T01:37:21.344Z,0.68
2022-11-05T01:39:47.874Z,0.60
2022-11-05T01:42:23.199Z,1.20
2022-11-05T01:44:55.015Z,1.25
2022-11-05T01:47:39.851Z,1.40
2022-11-05T01:50:29.523Z,2.38
2022-11-05T01:53:05.971Z,1.25
2022-11-05T01:55:37.860Z,0.90
2022-11-05T01:58:09.293Z,2.28
2022-11-05T02:00:36.470Z,1.45
2022-11-05T02:03:03.145Z,1.25
2022-11-05T02:05:30.563Z,0.93
2022-11-05T02:07:57.446Z,1.60
2022-11-05T02:10:24.452Z,1.98
2022-11-05T02:12:51.175Z,1.92
2022-11-05T02:15:32.894Z,3.00
2022-11-05T02:18:12.669Z,2.67
2022-11-05T02:21:06.507Z,2.53
2022-11-05T02:23:53.497Z,3.67
2022-11-05T02:26:34.338Z,2.35
2022-11-05T02:29:23.528Z,4.95
2022-11-05T02:32:02.944Z,3.75
2022-11-05T02:34:55.519Z,4.47
2022-11-05T02:37:35.480Z,4.80
2022-11-05T02:40:19.362Z,3.58
2022-11-05T02:43:27.991Z,4.22
2022-11-05T02:46:14.915Z,3.10
2022-11-05T02:48:50.363Z,6.43
2022-11-05T02:51:26.363Z,3.83
2022-11-05T02:54:03.367Z,4.97
2022-11-05T02:56:33.858Z,5.88
2022-11-05T02:59:00.392Z,5.85
2022-11-05T03:01:27.075Z,5.53
2022-11-05T03:04:00.697Z,6.00
2022-11-05T03:06:50.596Z,3.83
2022-11-05T03:09:44.235Z,5.97
2022-11-05T03:12:27.852Z,4.93
2022-11-05T03:15:22.547Z,4.13
2022-11-05T03:18:02.764Z,6.78
2022-11-05T03:20:54.565Z,5.32
2022-11-05T03:23:37.811Z,6.40
2022-11-05T03:26:17.272Z,8.68
2022-11-05T03:28:52.447Z,9.63
2022-11-05T03:31:20.747Z,7.70
2022-11-05T03:33:48.967Z,5.90
2022-11-05T03:36:22.867Z,7.40
2022-11-05T03:38:53.106Z,8.73
2022-11-05T03:41:22.667Z,7.45
2022-11-05T03:43:53.893Z,10.00
2022-11-05T03:46:20.401Z,8.27
2022-11-05T03:48:52.700Z,7.43
2022-11-05T03:51:47.103Z,6.50
2022-11-05T03:54:14.274Z,9.30
2022-11-05T03:57:06.652Z,7.78
2022-11-05T04:02:05.298Z,8.85
2022-11-05T04:04:31.929Z,7.90
2022-11-05T04:07:17.110Z,8.48
2022-11-05T04:10:02.302Z,8.98
2022-11-05T04:12:47.747Z,9.52
2022-11-05T04:15:14.418Z,9.07
2022-11-05T04:17:40.945Z,8.38
2022-11-05T04:20:26.503Z,8.95
2022-11-05T04:23:22.447Z,8.15
2022-11-05T04:25:49.430Z,9.00
2022-11-05T04:28:16.252Z,7.97
2022-11-05T04:30:45.851Z,7.05
2022-11-05T04:33:17.022Z,7.18
2022-11-05T04:35:45.641Z,10.17
2022-11-05T04:38:20.048Z,9.50
2022-11-05T04:40:48.011Z,8.68
2022-11-05T04:43:18.623Z,8.55
2022-11-05T04:45:46.023Z,8.45
2022-11-05T04:48:12.821Z,9.18
2022-11-05T04:50:39.471Z,7.80
2022-11-05T04:53:06.066Z,7.68
2022-11-05T04:55:32.658Z,9.70
2022-11-05T04:57:59.226Z,8.23
2022-11-05T05:00:26.035Z,8.02
2022-11-05T05:02:52.656Z,7.93
2022-11-05T05:05:19.272Z,5.82
2022-11-05T05:07:45.828Z,7.95
2022-11-05T05:10:12.847Z,6.65
2022-11-05T05:12:39.480Z,9.68
2022-11-05T05:15:06.517Z,7.25
2022-11-05T05:17:33.096Z,7.18
2022-11-05T05:20:18.079Z,6.05
2022-11-05T05:22:50.694Z,7.78
2022-11-05T05:25:17.227Z,10.10
2022-11-05T05:27:43.882Z,9.93
2022-11-05T05:30:10.902Z,8.25
2022-11-05T05:32:37.423Z,7.70
2022-11-05T05:35:04.213Z,7.75
2022-11-05T05:37:30.732Z,7.28
2022-11-05T05:39:57.332Z,7.57
2022-11-05T05:42:23.907Z,7.55
2022-11-05T05:44:50.440Z,7.63
2022-11-05T05:47:17.000Z,6.43
2022-11-05T05:49:43.532Z,7.13
2022-11-05T05:52:10.124Z,6.07
2022-11-05T05:54:42.281Z,7.03
2022-11-05T05:57:09.459Z,6.72
2022-11-05T05:59:36.196Z,7.05
2022-11-05T06:02:03.059Z,6.57
2022-11-05T06:04:29.683Z,5.43
2022-11-05T06:06:56.231Z,5.38
2022-11-05T06:09:22.784Z,6.97
2022-11-05T06:11:49.321Z,7.35
2022-11-05T06:14:15.924Z,6.15
2022-11-05T06:16:42.442Z,7.10
2022-11-05T06:19:09.035Z,6.05
2022-11-05T06:21:35.658Z,6.88
2022-11-05T06:24:02.838Z,7.40
2022-11-05T06:26:29.466Z,6.63
2022-11-05T06:28:56.050Z,5.85
2022-11-05T06:31:23.204Z,6.18
2022-11-05T06:33:49.739Z,5.88
2022-11-05T06:36:18.047Z,6.43
2022-11-05T06:38:44.676Z,5.50
2022-11-05T06:41:11.272Z,6.70
2022-11-05T06:43:38.557Z,8.25
2022-11-05T06:46:05.438Z,8.48
2022-11-05T06:48:32.090Z,6.15
2022-11-05T06:50:58.700Z,7.25
2022-11-05T06:53:25.362Z,11.93
2022-11-05T06:55:52.132Z,5.10
2022-11-05T06:58:18.859Z,5.85
2022-11-05T07:00:45.616Z,8.43
2022-11-05T07:03:13.343Z,9.57
2022-11-05T07:05:44.483Z,14.23
2022-11-05T07:08:11.020Z,14.43
2022-11-05T07:10:37.544Z,9.98
2022-11-05T07:13:08.103Z,8.23
2022-11-05T07:15:35.197Z,5.93
2022-11-05T07:18:02.031Z,6.85
2022-11-05T07:20:33.973Z,6.57
2022-11-05T07:23:12.884Z,9.63
2022-11-05T07:25:40.784Z,10.63
2022-11-05T07:28:07.646Z,7.38
2022-11-05T07:30:35.143Z,5.80
2022-11-05T07:33:01.990Z,8.10
2022-11-05T07:35:29.289Z,4.32
2022-11-05T07:37:56.346Z,4.53
2022-11-05T07:40:25.205Z,4.30
2022-11-05T07:42:54.538Z,4.95
2022-11-05T07:45:21.732Z,6.65
2022-11-05T07:47:53.962Z,6.13
2022-11-05T07:50:23.164Z,5.93
2022-11-05T07:52:50.169Z,5.00
2022-11-05T07:55:18.283Z,4.50
2022-11-05T07:57:49.929Z,5.10
2022-11-05T08:00:20.147Z,5.88
2022-11-05T08:03:07.696Z,6.22
2022-11-05T08:05:37.033Z,4.93
2022-11-05T08:08:04.211Z,6.15
2022-11-05T08:10:30.780Z,3.45
2022-11-05T08:12:57.400Z,6.05
2022-11-05T08:15:24.296Z,3.72
2022-11-05T08:17:58.554Z,4.07
2022-11-05T08:20:26.215Z,5.22
2022-11-05T08:22:53.551Z,4.05
2022-11-05T08:25:20.370Z,3.15
2022-11-05T08:27:46.909Z,6.25
2022-11-05T08:30:13.720Z,4.78
2022-11-05T08:32:40.332Z,5.28
2022-11-05T08:35:07.415Z,2.90
2022-11-05T08:37:33.950Z,3.97
2022-11-05T08:40:00.619Z,4.50
2022-11-05T08:42:27.247Z,3.45
2022-11-05T08:44:53.794Z,2.40
2022-11-05T08:47:20.411Z,3.75
2022-11-05T08:49:46.988Z,3.80
2022-11-05T08:52:13.577Z,3.58
2022-11-05T08:54:40.109Z,2.78
2022-11-05T08:57:06.710Z,3.15
2022-11-05T08:59:33.232Z,3.85
2022-11-05T09:01:59.927Z,4.35
2022-11-05T09:04:26.596Z,2.30
2022-11-05T09:06:53.379Z,2.80
2022-11-05T09:09:19.944Z,3.08
2022-11-05T09:12:10.686Z,4.05
2022-11-05T09:14:33.288Z,2.20
2022-11-05T09:16:59.828Z,2.42
2022-11-05T09:19:26.384Z,2.30
2022-11-05T09:21:53.011Z,3.58
2022-11-05T09:24:19.583Z,2.30
2022-11-05T09:26:46.136Z,2.15
2022-11-05T09:29:14.537Z,3.28
2022-11-05T09:31:41.411Z,2.33
2022-11-05T09:34:07.984Z,5.95
2022-11-05T09:36:34.564Z,2.53
2022-11-05T09:39:01.113Z,2.42
2022-11-05T09:41:31.786Z,3.42
2022-11-05T09:44:03.591Z,2.45
2022-11-05T09:47:01.843Z,2.72
2022-11-05T09:49:39.688Z,3.28
2022-11-05T09:52:13.235Z,2.47
2022-11-05T09:54:40.885Z,2.28
2022-11-05T09:57:14.602Z,4.03
2022-11-05T09:59:48.454Z,2.28
2022-11-05T10:02:34.483Z,2.10
2022-11-05T10:05:09.748Z,7.57
2022-11-05T10:08:01.520Z,6.78
2022-11-05T10:10:39.372Z,14.88
2022-11-05T10:13:36.172Z,9.27
2022-11-05T10:16:11.819Z,7.78
2022-11-05T10:18:41.094Z,5.10
2022-11-05T10:21:16.250Z,4.93
2022-11-05T10:23:44.364Z,4.93
2022-11-05T10:26:15.023Z,5.20
2022-11-05T10:28:41.782Z,4.05
2022-11-05T10:31:12.417Z,5.05
2022-11-05T10:33:44.066Z,4.70
2022-11-05T10:36:17.867Z,2.78
2022-11-05T10:38:44.623Z,4.82
2022-11-05T10:41:37.471Z,3.05
2022-11-05T10:44:26.340Z,2.65
2022-11-05T10:47:07.746Z,3.95
2022-11-05T10:49:50.380Z,2.90
2022-11-05T10:52:33.247Z,2.75
2022-11-05T10:55:02.648Z,2.63
2022-11-05T10:57:33.605Z,5.32
2022-11-05T11:00:15.240Z,4.32
2022-11-05T11:02:49.308Z,4.75
2022-11-05T11:05:28.855Z,2.58
2022-11-05T11:08:12.832Z,2.83
2022-11-05T11:10:55.224Z,4.57
2022-11-05T11:13:24.177Z,3.47
2022-11-05T11:15:51.832Z,4.07
2022-11-05T11:18:31.504Z,4.72
2022-11-05T11:21:23.012Z,3.60
2022-11-05T11:24:09.368Z,7.38
2022-11-05T11:26:37.883Z,2.65
2022-11-05T11:29:28.317Z,4.70
2022-11-05T11:31:59.462Z,2.78
2022-11-05T11:34:30.904Z,4.87
2022-11-05T11:37:08.797Z,4.75
2022-11-05T11:39:37.274Z,2.78
2022-11-05T11:42:17.418Z,3.20
2022-11-05T11:44:47.283Z,4.95
2022-11-05T11:47:17.188Z,3.58
2022-11-05T11:49:54.265Z,4.68
2022-11-05T11:52:35.164Z,2.53
2022-11-05T11:55:11.016Z,2.03
2022-11-05T11:57:47.844Z,3.70
2022-11-05T12:00:15.976Z,2.90
2022-11-05T12:03:04.524Z,2.17
2022-11-05T12:05:52.074Z,2.67
2022-11-05T12:08:18.583Z,4.03
2022-11-05T12:11:02.987Z,2.45
2022-11-05T12:13:49.791Z,5.80
2022-11-05T12:16:40.524Z,3.88
2022-11-05T12:19:26.024Z,3.13
2022-11-05T12:22:09.539Z,3.05
2022-11-05T12:24:41.647Z,3.72
2022-11-05T12:30:14.536Z,2.90
2022-11-05T12:33:25.319Z,2.50
2022-11-05T12:36:19.060Z,2.70
2022-11-05T12:39:04.270Z,2.40
2022-11-05T12:41:58.409Z,2.10
2022-11-05T12:44:30.641Z,2.42
2022-11-05T12:47:20.435Z,3.45
2022-11-05T12:50:02.002Z,1.98
2022-11-05T12:53:06.419Z,3.22
2022-11-05T12:55:39.488Z,1.85
2022-11-05T12:58:12.978Z,1.83
2022-11-05T13:00:44.343Z,2.07
2022-11-05T13:03:32.783Z,9.55
2022-11-05T13:06:23.830Z,2.30
2022-11-05T13:09:08.879Z,3.60
2022-11-05T13:11:47.691Z,1.42
2022-11-05T13:14:45.575Z,3.85
2022-11-05T13:17:21.375Z,4.13
2022-11-05T13:20:17.510Z,1.88
2022-11-05T13:22:44.150Z,2.35
2022-11-05T13:25:27.077Z,2.53
2022-11-05T13:28:06.613Z,1.80
2022-11-05T13:30:38.124Z,3.17
2022-11-05T13:33:11.262Z,2.80
2022-11-05T13:35:49.464Z,1.60
2022-11-05T13:38:43.195Z,2.17
2022-11-05T13:41:32.693Z,3.63
2022-11-05T13:44:06.790Z,2.00
2022-11-05T13:46:59.270Z,1.73
2022-11-05T13:49:28.879Z,2.10
2022-11-05T13:52:26.409Z,1.55
2022-11-05T13:55:11.990Z,1.27
2022-11-05T13:57:57.172Z,1.60
2022-11-05T14:00:29.594Z,4.30
2022-11-05T14:03:01.603Z,2.15
2022-11-05T14:08:37.267Z,3.83
2022-11-05T14:11:15.665Z,1.73
2022-11-05T14:13:44.991Z,1.67
2022-11-05T14:16:23.891Z,2.30
2022-11-05T14:18:55.693Z,2.35
2022-11-05T14:21:46.508Z,3.17
2022-11-05T14:24:22.222Z,3.25
2022-11-05T14:27:00.762Z,2.67
2022-11-05T14:29:40.156Z,1.88
2022-11-05T14:32:21.709Z,5.43
2022-11-05T14:34:55.815Z,6.15
2022-11-05T14:37:53.433Z,2.65
2022-11-05T14:40:32.725Z,1.98
2022-11-05T14:43:02.776Z,3.45
2022-11-05T14:45:49.569Z,3.15
2022-11-05T14:48:53.687Z,2.40
2022-11-05T14:51:36.974Z,1.23
2022-11-05T14:54:19.372Z,2.00
2022-11-05T14:56:54.966Z,3.33
2022-11-05T14:59:25.516Z,1.50
2022-11-05T15:01:57.117Z,2.90
2022-11-05T15:04:32.427Z,2.05
2022-11-05T15:07:01.965Z,1.60
2022-11-05T15:09:40.484Z,3.15
2022-11-05T15:12:11.296Z,1.63
2022-11-05T15:14:57.848Z,1.75
2022-11-05T15:17:40.167Z,2.63
2022-11-05T15:20:08.623Z,4.13
2022-11-05T15:22:40.604Z,3.17
2022-11-05T15:25:28.519Z,2.83
2022-11-05T15:28:12.508Z,3.90
2022-11-05T15:31:06.031Z,1.98
2022-11-05T15:33:33.307Z,2.33
2022-11-05T15:36:30.565Z,4.80
2022-11-05T15:39:23.346Z,5.40
2022-11-05T15:41:44.987Z,8.70
2022-11-05T15:44:38.456Z,5.43
2022-11-05T15:47:18.319Z,4.68
2022-11-05T15:49:51.220Z,5.20
2022-11-05T15:52:20.339Z,4.85
2022-11-05T15:55:07.181Z,4.18
2022-11-05T15:57:36.911Z,5.20
2022-11-05T16:00:15.487Z,5.28
2022-11-05T16:02:42.811Z,4.30
2022-11-05T16:05:14.207Z,4.35
2022-11-05T16:07:45.952Z,4.18
2022-11-05T16:10:29.171Z,7.63
2022-11-05T16:12:56.334Z,8.68
2022-11-05T16:15:32.070Z,12.15
2022-11-05T16:17:59.925Z,6.18
2022-11-05T16:20:35.037Z,7.63
2022-11-05T16:23:07.115Z,6.57
2022-11-05T16:28:19.680Z,6.07
2022-11-05T16:31:03.740Z,5.75
2022-11-05T16:33:42.926Z,6.80
2022-11-05T16:36:09.720Z,6.65
2022-11-05T16:38:36.413Z,5.43
2022-11-05T16:41:03.081Z,5.45
2022-11-05T16:43:29.729Z,4.47
2022-11-05T16:46:00.884Z,3.80
2022-11-05T16:48:27.548Z,4.90
2022-11-05T16:50:54.503Z,4.38
2022-11-05T16:53:21.097Z,3.80
2022-11-05T16:55:48.021Z,4.32
2022-11-05T16:58:23.769Z,4.95
2022-11-05T17:00:52.376Z,5.20
2022-11-05T17:03:18.939Z,3.78
2022-11-05T17:05:45.934Z,3.70
2022-11-05T17:08:12.849Z,5.07
2022-11-05T17:10:39.645Z,3.80
2022-11-05T17:13:06.199Z,4.00
2022-11-05T17:15:35.496Z,4.55
2022-11-05T17:18:03.100Z,3.88
2022-11-05T17:20:41.439Z,5.55
2022-11-05T17:23:13.751Z,4.65
2022-11-05T17:25:42.049Z,9.32
2022-11-05T17:28:09.344Z,5.53
2022-11-05T17:30:37.103Z,4.72
2022-11-05T17:33:04.413Z,4.63
2022-11-05T17:35:31.313Z,4.60
2022-11-05T17:37:57.957Z,4.15
2022-11-05T17:40:24.994Z,3.03
2022-11-05T17:42:52.762Z,3.47
2022-11-05T17:45:19.352Z,4.55
2022-11-05T17:47:45.995Z,4.15
2022-11-05T17:50:14.866Z,3.45
2022-11-05T17:52:41.611Z,2.92
2022-11-05T17:55:16.386Z,2.72
2022-11-05T17:57:50.529Z,5.53
2022-11-05T18:00:23.126Z,5.05
2022-11-05T18:02:51.564Z,2.95
2022-11-05T18:05:19.339Z,3.08
2022-11-05T18:07:46.754Z,2.63
2022-11-05T18:10:13.800Z,2.95
2022-11-05T18:12:40.627Z,4.25
2022-11-05T18:15:08.250Z,4.15
2022-11-05T18:17:35.219Z,3.38
2022-11-05T18:20:02.216Z,2.70
2022-11-05T18:22:29.460Z,3.85
2022-11-05T18:24:56.087Z,3.50
2022-11-05T18:27:27.590Z,3.22
2022-11-05T18:29:54.668Z,4.07
2022-11-05T18:32:21.511Z,2.60
2022-11-05T18:34:48.234Z,4.30
2022-11-05T18:37:15.443Z,3.75
2022-11-05T18:39:42.375Z,2.95
2022-11-05T18:42:09.413Z,3.00
2022-11-05T18:44:39.163Z,3.15
2022-11-05T18:47:06.731Z,2.67
2022-11-05T18:49:33.772Z,3.33
2022-11-05T18:52:00.663Z,2.70
2022-11-05T18:54:27.693Z,2.85
2022-11-05T18:56:54.339Z,2.58
2022-11-05T18:59:38.979Z,3.17
2022-11-05T19:02:08.154Z,2.03
2022-11-05T19:04:36.201Z,2.15
2022-11-05T19:07:05.388Z,2.35
2022-11-05T19:09:33.673Z,5.35
2022-11-05T19:12:00.988Z,2.42
2022-11-05T19:14:27.839Z,2.95
2022-11-05T19:16:54.437Z,5.07
2022-11-05T19:19:21.204Z,3.38
2022-11-05T19:21:47.765Z,2.30
2022-11-05T19:24:17.501Z,2.08
2022-11-05T19:26:44.777Z,3.60
2022-11-05T19:29:11.773Z,2.13
2022-11-05T19:31:39.015Z,2.60
2022-11-05T19:34:05.819Z,1.98
2022-11-05T19:36:33.469Z,3.35
2022-11-05T19:39:02.587Z,2.20
2022-11-05T19:41:29.434Z,2.20
2022-11-05T19:43:57.969Z,2.10
2022-11-05T19:46:25.378Z,2.13
2022-11-05T19:48:52.413Z,2.88
2022-11-05T19:51:22.206Z,2.78
2022-11-05T19:53:49.165Z,2.15
2022-11-05T19:56:21.583Z,2.25
2022-11-05T19:58:48.958Z,2.85
2022-11-05T20:01:17.222Z,3.97
2022-11-05T20:03:44.395Z,2.70
2022-11-05T20:06:15.913Z,2.15
2022-11-05T20:09:07.084Z,2.42
2022-11-05T20:11:29.579Z,1.80
2022-11-05T20:13:56.737Z,2.50
2022-11-05T20:16:28.243Z,2.17
2022-11-05T20:18:54.986Z,2.83
2022-11-05T20:21:21.691Z,2.17
2022-11-05T20:23:48.410Z,2.42
2022-11-05T20:26:15.371Z,2.60
2022-11-05T20:28:43.552Z,4.13
2022-11-05T20:31:12.831Z,2.55
2022-11-05T20:33:40.655Z,2.80
2022-11-05T20:36:19.331Z,4.57
2022-11-05T20:38:55.055Z,4.70
2022-11-05T20:41:22.096Z,3.40
2022-11-05T20:43:48.879Z,2.88
2022-11-05T20:46:17.735Z,3.97
2022-11-05T20:48:45.263Z,3.50
2022-11-05T20:51:14.658Z,4.82
2022-11-05T20:53:42.211Z,2.50
2022-11-05T20:56:15.588Z,4.43
2022-11-05T20:58:42.123Z,2.63
2022-11-05T21:01:11.697Z,3.85
2022-11-05T21:03:38.400Z,3.15
2022-11-05T21:06:06.291Z,3.33
2022-11-05T21:08:33.379Z,1.67
2022-11-05T21:11:00.191Z,2.47
2022-11-05T21:13:27.092Z,4.90
2022-11-05T21:15:56.070Z,2.35
2022-11-05T21:18:25.747Z,2.17
2022-11-05T21:20:53.349Z,2.35
2022-11-05T21:23:20.506Z,3.35
2022-11-05T21:25:47.460Z,2.60
2022-11-05T21:28:16.059Z,2.55
2022-11-05T21:30:45.576Z,2.97
2022-11-05T21:33:14.258Z,2.10
2022-11-05T21:35:46.111Z,1.85
2022-11-05T21:38:15.135Z,1.88
2022-11-05T21:40:42.432Z,2.28
2022-11-05T21:43:09.182Z,3.25
2022-11-05T21:45:38.970Z,2.50
2022-11-05T21:48:06.309Z,2.10
2022-11-05T21:50:51.523Z,3.45
2022-11-05T21:53:37.103Z,4.03
2022-11-05T21:56:27.205Z,2.85
2022-11-05T21:59:12.531Z,2.25
2022-11-05T22:01:39.141Z,1.85
2022-11-05T22:04:05.763Z,2.95
2022-11-05T22:06:33.548Z,2.30
2022-11-05T22:09:00.207Z,3.38
2022-11-05T22:11:26.811Z,4.68
2022-11-05T22:13:53.594Z,2.30
2022-11-05T22:16:20.251Z,5.00
2022-11-05T22:18:46.891Z,2.67
2022-11-05T22:21:18.470Z,3.58
2022-11-05T22:23:45.220Z,2.35
2022-11-05T22:26:11.843Z,2.58
2022-11-05T22:28:38.414Z,3.15
2022-11-05T22:31:14.934Z,4.20
2022-11-05T22:33:42.060Z,3.60
2022-11-05T22:36:09.196Z,5.82
2022-11-05T22:38:35.810Z,2.25
2022-11-05T22:41:10.251Z,4.97
2022-11-05T22:43:37.353Z,3.90
2022-11-05T22:46:06.400Z,3.10
2022-11-05T22:48:35.398Z,2.20
2022-11-05T22:51:07.334Z,5.93
2022-11-05T22:53:35.648Z,1.90
2022-11-05T22:56:04.000Z,5.45
2022-11-05T22:58:31.466Z,4.00
2022-11-05T23:00:58.306Z,3.70
2022-11-05T23:03:25.990Z,5.18
2022-11-05T23:06:04.381Z,4.35
2022-11-05T23:08:50.563Z,2.97
2022-11-05T23:11:46.095Z,2.60
2022-11-05T23:14:13.980Z,5.00
2022-11-05T23:17:00.320Z,3.47
2022-11-05T23:19:45.919Z,4.30
2022-11-05T23:22:33.195Z,2.72
2022-11-05T23:25:00.001Z,2.88
2022-11-05T23:27:34.451Z,3.40
2022-11-05T23:30:03.929Z,4.30
2022-11-05T23:32:31.896Z,1.88
2022-11-05T23:34:58.838Z,2.30
2022-11-05T23:37:46.291Z,2.90
2022-11-05T23:40:18.395Z,4.78
2022-11-05T23:45:51.035Z,2.45
2022-11-05T23:48:17.730Z,3.60
2022-11-05T23:50:59.544Z,2.60
2022-11-05T23:53:26.765Z,3.75
2022-11-05T23:55:53.468Z,2.17
2022-11-05T23:58:20.035Z,2.30
